createdAt,value
2017-08-09T00:02:20.957Z,22.40
2017-08-09T00:04:48.507Z,22.50
2017-08-09T00:07:16.107Z,22.40
2017-08-09T00:09:43.695Z,22.40
2017-08-09T00:12:11.238Z,22.40
2017-08-09T00:14:39.150Z,22.30
2017-08-09T00:17:06.721Z,22.30
2017-08-09T00:19:34.267Z,22.30
2017-08-09T00:22:01.857Z,22.30
2017-08-09T00:24:29.413Z,22.30
2017-08-09T00:26:57.407Z,22.30
2017-08-09T00:29:24.966Z,22.30
2017-08-09T00:31:52.525Z,22.30
2017-08-09T00:34:20.149Z,22.30
2017-08-09T00:36:47.701Z,22.20
2017-08-09T00:39:15.731Z,22.20
2017-08-09T00:41:43.276Z,22.20
2017-08-09T00:44:10.832Z,22.20
2017-08-09T00:46:38.413Z,22.10
2017-08-09T00:49:05.991Z,22.10
2017-08-09T00:51:34.841Z,22.10
2017-08-09T00:54:02.388Z,22.00
2017-08-09T00:56:29.944Z,22.00
2017-08-09T00:58:57.835Z,21.90
2017-08-09T01:01:25.373Z,22.00
2017-08-09T01:03:53.300Z,21.90
2017-08-09T01:06:20.857Z,21.90
2017-08-09T01:08:49.167Z,21.90
2017-08-09T01:11:16.746Z,21.80
2017-08-09T01:13:44.511Z,21.80
2017-08-09T01:16:13.175Z,21.80
2017-08-09T01:18:40.716Z,21.70
2017-08-09T01:21:08.263Z,21.80
2017-08-09T01:23:36.620Z,21.70
2017-08-09T01:26:04.181Z,21.70
2017-08-09T01:28:32.221Z,21.70
2017-08-09T01:30:59.797Z,21.60
2017-08-09T01:33:27.362Z,21.60
2017-08-09T01:35:54.965Z,21.50
2017-08-09T01:38:22.524Z,21.50
2017-08-09T01:40:50.400Z,21.50
2017-08-09T01:43:17.952Z,21.40
2017-08-09T01:45:45.507Z,21.40
2017-08-09T01:48:13.109Z,21.40
2017-08-09T01:50:40.651Z,21.40
2017-08-09T01:53:08.519Z,21.40
2017-08-09T01:55:36.112Z,21.40
2017-08-09T01:58:03.687Z,21.40
2017-08-09T02:00:31.293Z,21.30
2017-08-09T02:02:58.866Z,21.30
2017-08-09T02:05:26.725Z,21.20
2017-08-09T02:07:54.297Z,21.20
2017-08-09T02:10:21.882Z,21.20
2017-08-09T02:12:49.519Z,21.20
2017-08-09T02:15:17.065Z,21.20
2017-08-09T02:17:44.945Z,21.30
2017-08-09T02:20:12.499Z,21.30
2017-08-09T02:22:40.051Z,21.20
2017-08-09T02:25:07.813Z,21.30
2017-08-09T02:27:35.374Z,21.30
2017-08-09T02:30:03.378Z,21.20
2017-08-09T02:32:30.945Z,21.20
2017-08-09T02:34:58.516Z,21.20
2017-08-09T02:37:26.879Z,21.00
2017-08-09T02:39:54.443Z,21.10
2017-08-09T02:42:22.413Z,21.00
2017-08-09T02:44:49.975Z,21.00
2017-08-09T02:47:17.533Z,20.90
2017-08-09T02:49:45.146Z,20.90
2017-08-09T02:52:12.718Z,20.90
2017-08-09T02:54:40.607Z,20.80
2017-08-09T02:57:08.158Z,20.80
2017-08-09T02:59:35.711Z,20.70
2017-08-09T03:02:03.303Z,20.70
2017-08-09T03:04:30.886Z,20.70
2017-08-09T03:06:58.939Z,20.70
2017-08-09T03:09:27.275Z,20.60
2017-08-09T03:11:54.847Z,20.60
2017-08-09T03:14:22.552Z,20.60
2017-08-09T03:16:50.884Z,20.60
2017-08-09T03:19:18.762Z,20.60
2017-08-09T03:21:46.298Z,20.60
2017-08-09T03:24:13.851Z,20.50
2017-08-09T03:26:41.439Z,20.50
2017-08-09T03:29:08.989Z,20.50
2017-08-09T03:31:36.855Z,20.50
2017-08-09T03:34:04.433Z,20.40
2017-08-09T03:36:32.141Z,20.40
2017-08-09T03:38:59.902Z,20.40
2017-08-09T03:41:27.600Z,20.30
2017-08-09T03:43:55.519Z,20.30
2017-08-09T03:46:23.094Z,20.20
2017-08-09T03:48:50.671Z,20.20
2017-08-09T03:51:18.328Z,20.20
2017-08-09T03:53:45.891Z,20.20
2017-08-09T03:56:13.793Z,20.20
2017-08-09T03:58:41.364Z,20.20
2017-08-09T04:01:08.931Z,20.30
2017-08-09T04:03:36.514Z,20.30
2017-08-09T04:06:04.088Z,20.30
2017-08-09T04:08:31.975Z,20.30
2017-08-09T04:10:59.562Z,20.40
2017-08-09T04:13:27.127Z,20.40
2017-08-09T04:15:54.745Z,20.40
2017-08-09T04:18:22.318Z,20.50
2017-08-09T04:20:50.417Z,20.50
2017-08-09T04:23:18.117Z,20.60
2017-08-09T04:25:45.673Z,20.60
2017-08-09T04:28:13.274Z,20.60
2017-08-09T04:30:40.867Z,20.60
2017-08-09T04:33:09.555Z,20.50
2017-08-09T04:35:37.862Z,20.50
2017-08-09T04:38:05.429Z,20.50
2017-08-09T04:40:33.037Z,20.50
2017-08-09T04:43:00.617Z,20.50
2017-08-09T04:45:29.292Z,20.70
2017-08-09T04:47:56.839Z,20.70
2017-08-09T04:50:24.420Z,20.90
2017-08-09T04:52:52.187Z,21.00
2017-08-09T04:55:19.757Z,21.10
2017-08-09T04:57:48.447Z,21.00
2017-08-09T05:00:16.765Z,21.00
2017-08-09T05:02:44.331Z,21.00
2017-08-09T05:05:11.926Z,21.10
2017-08-09T05:07:39.477Z,21.20
2017-08-09T05:10:07.539Z,21.20
2017-08-09T05:12:35.271Z,21.20
2017-08-09T05:15:02.813Z,21.40
2017-08-09T05:17:30.565Z,21.60
2017-08-09T05:19:58.127Z,21.70
2017-08-09T05:22:26.073Z,21.90
2017-08-09T05:24:54.419Z,22.40
2017-08-09T05:27:22.135Z,22.30
2017-08-09T05:29:49.730Z,22.60
2017-08-09T05:32:17.296Z,22.70
2017-08-09T05:34:45.160Z,22.70
2017-08-09T05:37:12.729Z,22.70
2017-08-09T05:39:40.277Z,22.60
2017-08-09T05:42:07.877Z,22.50
2017-08-09T05:44:35.442Z,22.40
2017-08-09T05:47:04.068Z,22.30
2017-08-09T05:49:31.807Z,22.20
2017-08-09T05:51:59.380Z,22.20
2017-08-09T05:54:27.008Z,22.20
2017-08-09T05:56:54.564Z,22.10
2017-08-09T05:59:22.636Z,22.10
2017-08-09T06:01:50.187Z,22.00
2017-08-09T06:04:17.771Z,21.90
2017-08-09T06:06:46.163Z,22.00
2017-08-09T06:09:13.717Z,22.00
2017-08-09T06:11:41.600Z,22.10
2017-08-09T06:14:09.146Z,22.10
2017-08-09T06:16:36.710Z,22.20
2017-08-09T06:19:04.332Z,22.20
2017-08-09T06:21:31.896Z,22.30
2017-08-09T06:23:59.767Z,22.30
2017-08-09T06:26:27.329Z,22.40
2017-08-09T06:28:55.840Z,22.40
2017-08-09T06:31:23.455Z,22.40
2017-08-09T06:33:51.037Z,22.50
2017-08-09T06:36:19.016Z,22.60
2017-08-09T06:38:47.339Z,22.70
2017-08-09T06:41:14.879Z,22.60
2017-08-09T06:43:42.499Z,22.80
2017-08-09T06:46:10.047Z,22.90
2017-08-09T06:48:37.895Z,23.00
2017-08-09T06:51:05.470Z,22.90
2017-08-09T06:53:33.045Z,22.90
2017-08-09T06:56:01.675Z,23.00
2017-08-09T06:58:29.234Z,23.00
2017-08-09T07:00:57.255Z,23.10
2017-08-09T07:03:25.581Z,23.20
2017-08-09T07:05:53.154Z,23.10
2017-08-09T07:08:20.761Z,23.10
2017-08-09T07:10:48.333Z,23.10
2017-08-09T07:13:16.980Z,23.30
2017-08-09T07:15:44.625Z,23.30
2017-08-09T07:18:12.187Z,23.50
2017-08-09T07:20:39.815Z,23.70
2017-08-09T07:23:07.376Z,24.00
2017-08-09T07:25:35.297Z,24.00
2017-08-09T07:28:02.874Z,24.20
2017-08-09T07:30:30.640Z,24.20
2017-08-09T07:32:59.054Z,24.20
2017-08-09T07:35:26.622Z,24.20
2017-08-09T07:37:54.632Z,24.10
2017-08-09T07:40:22.183Z,24.30
2017-08-09T07:42:49.739Z,24.60
2017-08-09T07:45:17.657Z,24.80
2017-08-09T07:47:45.205Z,24.90
2017-08-09T07:50:13.149Z,25.10
2017-08-09T07:52:41.476Z,25.60
2017-08-09T07:55:09.044Z,25.60
2017-08-09T07:57:36.782Z,25.90
2017-08-09T08:00:04.344Z,26.00
2017-08-09T08:02:32.264Z,25.70
2017-08-09T08:04:59.813Z,25.50
2017-08-09T08:07:27.371Z,25.60
2017-08-09T08:09:55.096Z,25.50
2017-08-09T08:12:22.657Z,25.60
2017-08-09T08:14:50.568Z,25.60
2017-08-09T08:17:18.117Z,25.70
2017-08-09T08:19:45.781Z,25.80
2017-08-09T08:22:13.391Z,25.90
2017-08-09T08:24:41.869Z,25.90
2017-08-09T08:27:10.534Z,25.90
2017-08-09T08:29:38.099Z,25.90
2017-08-09T08:32:05.684Z,26.00
2017-08-09T08:34:33.280Z,26.00
2017-08-09T08:37:00.849Z,26.10
2017-08-09T08:39:28.838Z,26.10
2017-08-09T08:41:56.406Z,26.20
2017-08-09T08:44:24.188Z,26.30
2017-08-09T08:46:52.563Z,26.50
2017-08-09T08:49:20.143Z,26.50
2017-08-09T08:51:48.069Z,26.50
2017-08-09T08:54:15.637Z,26.60
2017-08-09T08:56:43.232Z,26.60
2017-08-09T08:59:10.841Z,26.80
2017-08-09T09:01:38.417Z,26.90
2017-08-09T09:04:06.495Z,27.00
2017-08-09T09:06:34.873Z,27.20
2017-08-09T09:09:02.485Z,27.20
2017-08-09T09:11:30.202Z,27.10
2017-08-09T09:13:57.774Z,27.30
2017-08-09T09:16:26.650Z,27.40
2017-08-09T09:18:54.975Z,27.40
2017-08-09T09:21:22.526Z,27.40
2017-08-09T09:23:50.148Z,27.40
2017-08-09T09:26:17.863Z,27.10
2017-08-09T09:28:45.778Z,27.00
2017-08-09T09:31:14.127Z,27.20
2017-08-09T09:33:41.677Z,27.20
2017-08-09T09:36:09.271Z,27.30
2017-08-09T09:38:36.845Z,27.40
2017-08-09T09:41:04.923Z,27.30
2017-08-09T09:43:32.481Z,27.40
2017-08-09T09:46:00.226Z,27.40
2017-08-09T09:48:28.610Z,27.40
2017-08-09T09:50:56.172Z,27.40
2017-08-09T09:53:24.842Z,27.50
2017-08-09T09:55:52.392Z,27.40
2017-08-09T09:58:19.951Z,27.50
2017-08-09T10:00:47.558Z,27.50
2017-08-09T10:03:15.124Z,27.40
2017-08-09T10:05:43.156Z,27.50
2017-08-09T10:08:10.711Z,27.50
2017-08-09T10:10:38.282Z,27.40
2017-08-09T10:13:06.657Z,27.50
2017-08-09T10:15:34.231Z,27.50
2017-08-09T10:18:02.274Z,27.40
2017-08-09T10:20:29.835Z,27.40
2017-08-09T10:22:57.402Z,27.40
2017-08-09T10:25:24.996Z,27.40
2017-08-09T10:27:52.552Z,27.40
2017-08-09T10:30:20.625Z,27.40
2017-08-09T10:32:48.185Z,27.30
2017-08-09T10:35:15.746Z,27.30
2017-08-09T10:37:44.238Z,27.30
2017-08-09T10:40:11.793Z,27.30
2017-08-09T10:42:39.694Z,27.40
2017-08-09T10:45:07.249Z,27.40
2017-08-09T10:47:34.795Z,27.40
2017-08-09T10:50:02.429Z,27.50
2017-08-09T10:52:29.995Z,27.50
2017-08-09T10:54:58.015Z,27.50
2017-08-09T10:57:25.712Z,27.30
2017-08-09T10:59:54.032Z,26.90
2017-08-09T11:02:21.649Z,26.90
2017-08-09T11:04:49.967Z,27.00
2017-08-09T11:07:17.916Z,27.00
2017-08-09T11:09:45.479Z,27.20
2017-08-09T11:12:13.330Z,27.40
2017-08-09T11:14:40.978Z,27.50
2017-08-09T11:17:09.307Z,27.50
2017-08-09T11:19:37.302Z,27.50
2017-08-09T11:22:04.857Z,27.50
2017-08-09T11:24:32.404Z,27.50
2017-08-09T11:27:00.174Z,27.70
2017-08-09T11:29:27.746Z,27.80
2017-08-09T11:31:55.822Z,27.90
2017-08-09T11:34:23.382Z,27.90
2017-08-09T11:36:50.933Z,27.90
2017-08-09T11:39:18.547Z,28.10
2017-08-09T11:41:46.123Z,28.20
2017-08-09T11:44:14.296Z,28.20
2017-08-09T11:46:41.841Z,28.30
2017-08-09T11:49:09.421Z,28.20
2017-08-09T11:51:37.028Z,28.10
2017-08-09T11:54:04.583Z,28.00
2017-08-09T11:56:32.647Z,28.00
2017-08-09T11:59:00.214Z,28.10
2017-08-09T12:01:27.847Z,28.10
2017-08-09T12:03:55.446Z,28.10
2017-08-09T12:06:23.777Z,27.90
2017-08-09T12:08:51.760Z,27.90
2017-08-09T12:11:19.340Z,27.70
2017-08-09T12:13:46.925Z,27.80
2017-08-09T12:16:14.496Z,27.80
2017-08-09T12:18:42.092Z,27.80
2017-08-09T12:21:10.022Z,27.80
2017-08-09T12:23:37.619Z,27.80
2017-08-09T12:26:05.193Z,27.80
2017-08-09T12:28:32.792Z,27.70
2017-08-09T12:31:00.395Z,27.70
2017-08-09T12:33:28.383Z,27.80
2017-08-09T12:35:56.088Z,27.80
2017-08-09T12:38:23.640Z,27.70
2017-08-09T12:40:51.234Z,27.60
2017-08-09T12:43:18.806Z,27.60
2017-08-09T12:45:46.894Z,27.60
2017-08-09T12:48:14.463Z,27.60
2017-08-09T12:50:42.050Z,27.70
2017-08-09T12:53:10.480Z,27.70
2017-08-09T12:55:38.242Z,27.70
2017-08-09T12:58:06.247Z,27.70
2017-08-09T13:00:33.815Z,27.80
2017-08-09T13:03:01.372Z,28.00
2017-08-09T13:05:29.748Z,27.80
2017-08-09T13:07:57.310Z,27.80
2017-08-09T13:10:26.198Z,28.90
2017-08-09T13:12:54.576Z,29.70
2017-08-09T13:15:22.551Z,29.70
2017-08-09T13:17:51.000Z,31.50
2017-08-09T13:20:18.787Z,31.50
2017-08-09T13:22:46.781Z,32.20
2017-08-09T13:25:14.487Z,32.00
2017-08-09T13:27:42.049Z,31.40
2017-08-09T13:30:09.673Z,32.50
2017-08-09T13:32:37.255Z,33.20
2017-08-09T13:35:05.301Z,33.80
2017-08-09T13:37:32.960Z,34.40
2017-08-09T13:40:00.528Z,35.10
2017-08-09T13:42:28.160Z,35.70
2017-08-09T13:44:55.757Z,36.20
2017-08-09T13:47:23.952Z,36.60
2017-08-09T13:49:51.526Z,37.00
2017-08-09T13:52:19.100Z,37.50
2017-08-09T13:54:46.698Z,38.00
2017-08-09T13:57:14.266Z,38.50
2017-08-09T13:59:42.454Z,39.10
2017-08-09T14:02:10.209Z,39.10
2017-08-09T14:04:37.770Z,39.60
2017-08-09T14:07:05.356Z,38.60
2017-08-09T14:09:32.961Z,37.70
2017-08-09T14:12:01.607Z,39.40
2017-08-09T14:14:29.178Z,39.40
2017-08-09T14:16:56.722Z,39.10
2017-08-09T14:19:24.327Z,37.80
2017-08-09T14:21:51.894Z,37.00
2017-08-09T14:24:19.957Z,38.10
2017-08-09T14:26:48.271Z,38.70
2017-08-09T14:29:15.837Z,38.70
2017-08-09T14:31:43.525Z,37.50
2017-08-09T14:34:11.085Z,36.40
2017-08-09T14:36:39.064Z,35.50
2017-08-09T14:39:06.632Z,34.60
2017-08-09T14:41:34.983Z,33.20
2017-08-09T14:44:02.603Z,33.10
2017-08-09T14:46:30.158Z,32.60
2017-08-09T14:48:58.207Z,32.10
2017-08-09T14:51:26.528Z,31.40
2017-08-09T14:53:54.171Z,31.40
2017-08-09T14:56:21.773Z,31.20
2017-08-09T14:58:49.590Z,31.00
2017-08-09T15:01:17.535Z,30.70
2017-08-09T15:03:45.097Z,30.40
2017-08-09T15:06:12.707Z,30.20
2017-08-09T15:08:40.306Z,30.00
2017-08-09T15:11:07.878Z,29.80
2017-08-09T15:13:35.751Z,29.80
2017-08-09T15:16:03.308Z,29.80
2017-08-09T15:18:31.640Z,29.90
2017-08-09T15:20:59.242Z,29.90
2017-08-09T15:23:26.976Z,29.80
2017-08-09T15:25:54.840Z,29.70
2017-08-09T15:28:22.417Z,29.50
2017-08-09T15:30:49.984Z,29.90
2017-08-09T15:33:17.597Z,29.80
2017-08-09T15:35:45.146Z,30.20
2017-08-09T15:38:13.000Z,30.60
2017-08-09T15:40:40.599Z,31.20
2017-08-09T15:43:08.185Z,32.20
2017-08-09T15:45:35.796Z,31.50
2017-08-09T15:48:03.348Z,31.00
2017-08-09T15:50:31.214Z,30.50
2017-08-09T15:52:58.776Z,32.10
2017-08-09T15:55:26.353Z,32.90
2017-08-09T15:57:53.984Z,32.20
2017-08-09T16:00:22.313Z,32.90
2017-08-09T16:02:50.239Z,32.80
2017-08-09T16:05:17.780Z,34.90
2017-08-09T16:07:46.136Z,37.30
2017-08-09T16:10:13.733Z,37.30
2017-08-09T16:12:41.291Z,38.10
2017-08-09T16:15:09.262Z,39.10
2017-08-09T16:17:36.827Z,39.80
2017-08-09T16:20:04.377Z,40.70
2017-08-09T16:22:32.734Z,37.90
2017-08-09T16:25:00.511Z,37.90
2017-08-09T16:27:29.367Z,35.30
2017-08-09T16:29:56.945Z,35.30
2017-08-09T16:32:24.505Z,34.30
2017-08-09T16:34:52.324Z,33.50
2017-08-09T16:37:19.918Z,32.90
2017-08-09T16:39:47.930Z,32.30
2017-08-09T16:42:15.504Z,31.90
2017-08-09T16:44:43.095Z,31.50
2017-08-09T16:47:10.707Z,31.10
2017-08-09T16:49:39.062Z,30.60
2017-08-09T16:52:07.032Z,30.50
2017-08-09T16:54:34.688Z,30.30
2017-08-09T16:57:02.256Z,30.00
2017-08-09T16:59:29.874Z,29.80
2017-08-09T17:01:57.490Z,29.50
2017-08-09T17:04:26.158Z,29.20
2017-08-09T17:06:53.742Z,29.20
2017-08-09T17:09:21.330Z,29.00
2017-08-09T17:11:48.934Z,28.90
2017-08-09T17:14:17.298Z,28.60
2017-08-09T17:16:45.283Z,28.60
2017-08-09T17:19:12.867Z,28.50
2017-08-09T17:21:40.462Z,28.40
2017-08-09T17:24:08.067Z,28.20
2017-08-09T17:26:35.613Z,28.20
2017-08-09T17:29:03.583Z,28.10
2017-08-09T17:31:31.144Z,28.00
2017-08-09T17:33:58.708Z,27.90
2017-08-09T17:36:26.335Z,27.80
2017-08-09T17:38:53.905Z,27.80
2017-08-09T17:41:21.895Z,27.70
2017-08-09T17:43:49.492Z,27.60
2017-08-09T17:46:17.073Z,27.60
2017-08-09T17:48:44.678Z,27.50
2017-08-09T17:51:12.278Z,27.50
2017-08-09T17:53:40.240Z,27.40
2017-08-09T17:56:07.833Z,27.30
2017-08-09T17:58:35.558Z,27.30
2017-08-09T18:01:03.945Z,27.10
2017-08-09T18:03:31.508Z,27.10
2017-08-09T18:05:59.409Z,27.10
2017-08-09T18:08:27.043Z,27.00
2017-08-09T18:10:54.623Z,27.00
2017-08-09T18:13:22.233Z,26.90
2017-08-09T18:15:49.828Z,26.80
2017-08-09T18:18:17.699Z,26.70
2017-08-09T18:20:45.283Z,26.70
2017-08-09T18:23:12.886Z,26.60
2017-08-09T18:25:40.512Z,26.50
2017-08-09T18:28:08.080Z,26.40
2017-08-09T18:30:35.999Z,26.40
2017-08-09T18:33:03.581Z,26.30
2017-08-09T18:35:31.160Z,26.20
2017-08-09T18:37:58.796Z,26.20
2017-08-09T18:40:26.380Z,26.10
2017-08-09T18:42:54.251Z,26.10
2017-08-09T18:45:21.891Z,26.00
2017-08-09T18:47:49.485Z,26.00
2017-08-09T18:50:17.319Z,25.90
2017-08-09T18:52:44.942Z,25.90
2017-08-09T18:55:12.979Z,25.80
2017-08-09T18:57:40.573Z,25.70
2017-08-09T19:00:08.372Z,25.70
2017-08-09T19:02:36.002Z,25.60
2017-08-09T19:05:03.589Z,25.60
2017-08-09T19:07:31.582Z,25.60
2017-08-09T19:09:59.187Z,25.50
2017-08-09T19:12:26.810Z,25.50
2017-08-09T19:14:54.434Z,25.50
2017-08-09T19:17:22.021Z,25.50
2017-08-09T19:19:50.036Z,25.40
2017-08-09T19:22:18.384Z,25.40
2017-08-09T19:24:45.953Z,25.40
2017-08-09T19:27:13.567Z,25.40
2017-08-09T19:29:41.434Z,25.30
2017-08-09T19:32:09.385Z,25.30
2017-08-09T19:34:37.160Z,25.30
2017-08-09T19:37:04.732Z,25.20
2017-08-09T19:39:32.391Z,25.20
2017-08-09T19:41:59.974Z,25.20
2017-08-09T19:44:28.069Z,25.20
2017-08-09T19:46:55.647Z,25.10
2017-08-09T19:51:57.984Z,25.10
2017-08-09T19:54:25.574Z,25.10
2017-08-09T19:56:53.541Z,25.10
2017-08-09T19:59:21.129Z,25.10
2017-08-09T20:01:48.724Z,25.00
2017-08-09T20:04:16.366Z,25.00
2017-08-09T20:06:44.012Z,25.00
2017-08-09T20:09:12.939Z,25.00
2017-08-09T20:11:40.522Z,25.00
2017-08-09T20:14:08.084Z,25.00
2017-08-09T20:16:35.706Z,24.90
2017-08-09T20:19:03.283Z,24.90
2017-08-09T20:21:31.269Z,24.80
2017-08-09T20:23:58.845Z,24.80
2017-08-09T20:26:27.225Z,24.70
2017-08-09T20:28:54.893Z,24.70
2017-08-09T20:31:22.479Z,24.70
2017-08-09T20:33:51.148Z,24.70
2017-08-09T20:36:19.494Z,24.70
2017-08-09T20:38:47.069Z,24.70
2017-08-09T20:41:14.693Z,24.70
2017-08-09T20:43:42.323Z,24.70
2017-08-09T20:46:10.330Z,24.70
2017-08-09T20:48:37.935Z,24.60
2017-08-09T20:51:05.507Z,24.60
2017-08-09T20:53:33.103Z,24.60
2017-08-09T20:56:00.671Z,24.60
2017-08-09T20:58:30.147Z,24.60
2017-08-09T21:00:57.734Z,24.60
2017-08-09T21:03:25.289Z,24.50
2017-08-09T21:05:52.903Z,24.60
2017-08-09T21:08:20.858Z,24.60
2017-08-09T21:10:49.566Z,24.60
2017-08-09T21:13:17.916Z,24.60
2017-08-09T21:15:45.831Z,24.50
2017-08-09T21:18:13.667Z,24.60
2017-08-09T21:20:41.976Z,24.60
2017-08-09T21:23:09.914Z,24.60
2017-08-09T21:25:37.536Z,24.60
2017-08-09T21:28:08.380Z,24.50
2017-08-09T21:30:36.351Z,24.50
2017-08-09T21:33:04.020Z,24.50
2017-08-09T21:35:32.155Z,24.40
2017-08-09T21:37:59.727Z,24.40
2017-08-09T21:40:27.375Z,24.30
2017-08-09T21:42:55.220Z,24.30
2017-08-09T21:45:22.816Z,24.30
2017-08-09T21:47:50.887Z,24.30
2017-08-09T21:50:18.464Z,24.20
2017-08-09T21:52:46.041Z,24.20
2017-08-09T21:55:13.668Z,24.20
2017-08-09T21:57:41.236Z,24.20
2017-08-09T22:00:09.580Z,24.10
2017-08-09T22:02:37.192Z,24.10
2017-08-09T22:05:05.674Z,24.10
2017-08-09T22:07:33.303Z,24.00
2017-08-09T22:10:00.943Z,24.00
2017-08-09T22:12:28.863Z,24.00
2017-08-09T22:14:57.152Z,24.00
2017-08-09T22:17:25.016Z,24.00
2017-08-09T22:19:52.653Z,23.90
2017-08-09T22:22:20.219Z,23.90
2017-08-09T22:24:48.158Z,23.90
2017-08-09T22:27:17.700Z,23.90
2017-08-09T22:29:46.084Z,23.90
2017-08-09T22:32:13.793Z,23.80
2017-08-09T22:34:41.371Z,23.80
2017-08-09T22:37:09.371Z,23.80
2017-08-09T22:39:36.932Z,23.70
2017-08-09T22:42:04.498Z,23.70
2017-08-09T22:44:32.150Z,23.60
2017-08-09T22:46:59.827Z,23.50
2017-08-09T22:49:27.981Z,23.40
2017-08-09T22:51:56.099Z,23.40
2017-08-09T22:54:23.808Z,23.40
2017-08-09T22:56:51.498Z,23.30
2017-08-09T22:59:19.984Z,23.20
2017-08-09T23:01:47.984Z,23.20
2017-08-09T23:04:15.533Z,23.20
2017-08-09T23:06:43.083Z,23.10
2017-08-09T23:09:10.689Z,23.00
2017-08-09T23:11:38.291Z,23.00
2017-08-09T23:14:06.308Z,22.90
2017-08-09T23:16:33.863Z,22.90
2017-08-09T23:19:01.420Z,22.90
2017-08-09T23:21:29.015Z,22.80
2017-08-09T23:23:56.599Z,22.60
2017-08-09T23:26:24.623Z,22.20
2017-08-09T23:28:52.177Z,22.00
2017-08-09T23:31:19.721Z,21.80
2017-08-09T23:33:47.304Z,21.50
2017-08-09T23:36:15.062Z,21.40
2017-08-09T23:38:43.749Z,21.40
2017-08-09T23:41:11.326Z,21.20
2017-08-09T23:43:38.894Z,21.00
2017-08-09T23:46:07.269Z,20.50
2017-08-09T23:48:34.839Z,20.50
2017-08-09T23:51:03.487Z,20.40
2017-08-09T23:53:31.036Z,20.40
2017-08-09T23:55:58.605Z,20.30
2017-08-09T23:58:26.465Z,20.10
